South Sutton, New Hampshire
Current Conditions -  °F | °C
As of 2:51 PM on Friday 24 Oct 2014 (Local Time) from KCON Reporting Station
Overcast Overcast  
Wind Chill: 43°   Ceiling: 1700
Heat Index: 49°   Visibility: 10mi
Dew Point: 43°   Wind: 15mph
Humidity: 80%   Direction: 300°WNW
Pressure: 29.7"   Gusts: NA
Location:  43.32°N, 71.93°W
Report Text: KCON 241851Z AUTO 30013KT 10SM OVC017 09/06 A2970 RMK AO2 SLP058 T00940061
Loading
Personal Weather Stations






























Interactive Weather Map
Tropical Storm Tracking
New forecast layout! Learn more

10-Day Weather Forecast

Advertisements
Track Severe Weather on mobile